createdAt,value
2022-10-14T00:01:11.553Z,45.88
2022-10-14T00:03:39.349Z,46.75
2022-10-14T00:06:16.617Z,44.17
2022-10-14T00:08:43.940Z,42.28
2022-10-14T00:11:15.673Z,45.35
2022-10-14T00:13:42.753Z,43.90
2022-10-14T00:16:22.003Z,44.25
2022-10-14T00:18:49.385Z,41.50
2022-10-14T00:21:17.027Z,41.80
2022-10-14T00:23:44.294Z,41.63
2022-10-14T00:26:30.889Z,43.47
2022-10-14T00:28:58.334Z,39.70
2022-10-14T00:31:25.534Z,40.47
2022-10-14T00:33:52.560Z,41.10
2022-10-14T00:36:21.206Z,40.22
2022-10-14T00:38:48.521Z,40.20
2022-10-14T00:41:17.353Z,39.22
2022-10-14T00:44:02.856Z,38.80
2022-10-14T00:46:31.629Z,37.93
2022-10-14T00:48:59.721Z,38.92
2022-10-14T00:51:26.884Z,38.67
2022-10-14T00:53:58.014Z,39.30
2022-10-14T00:56:26.843Z,36.53
2022-10-14T00:58:54.166Z,36.58
2022-10-14T01:01:24.267Z,37.33
2022-10-14T01:03:53.770Z,36.40
2022-10-14T01:06:31.885Z,37.05
2022-10-14T01:09:17.693Z,38.40
2022-10-14T01:12:10.052Z,38.42
2022-10-14T01:15:07.230Z,36.00
2022-10-14T01:17:50.666Z,36.63
2022-10-14T01:20:36.495Z,39.75
2022-10-14T01:23:22.335Z,40.85
2022-10-14T01:25:52.451Z,38.58
2022-10-14T01:28:40.657Z,40.88
2022-10-14T01:31:10.038Z,37.22
2022-10-14T01:33:42.906Z,37.95
2022-10-14T01:36:09.998Z,39.00
2022-10-14T01:38:47.830Z,38.10
2022-10-14T01:41:17.885Z,40.78
2022-10-14T01:43:47.038Z,38.05
2022-10-14T01:46:16.597Z,34.83
2022-10-14T01:48:46.536Z,35.75
2022-10-14T01:51:16.675Z,37.47
2022-10-14T01:53:47.461Z,36.90
2022-10-14T01:56:17.806Z,34.50
2022-10-14T01:58:46.008Z,34.95
2022-10-14T02:01:13.093Z,35.47
2022-10-14T02:03:44.575Z,35.47
2022-10-14T02:06:31.893Z,35.67
2022-10-14T02:09:14.201Z,33.60
2022-10-14T02:11:55.510Z,36.45
2022-10-14T02:14:25.576Z,35.25
2022-10-14T02:16:58.826Z,35.80
2022-10-14T02:19:29.050Z,38.50
2022-10-14T02:22:02.596Z,34.50
2022-10-14T02:24:32.187Z,35.75
2022-10-14T02:27:00.964Z,34.33
2022-10-14T02:29:28.627Z,34.90
2022-10-14T02:31:57.615Z,34.50
2022-10-14T02:34:24.870Z,34.30
2022-10-14T02:36:52.882Z,33.03
2022-10-14T02:39:22.751Z,35.23
2022-10-14T02:41:49.863Z,30.77
2022-10-14T02:44:16.877Z,32.30
2022-10-14T02:46:43.897Z,33.00
2022-10-14T02:49:11.083Z,33.63
2022-10-14T02:51:39.198Z,36.92
2022-10-14T02:54:06.267Z,36.43
2022-10-14T02:56:33.351Z,38.80
2022-10-14T02:59:00.371Z,36.83
2022-10-14T03:01:27.496Z,38.33
2022-10-14T03:03:54.563Z,37.78
2022-10-14T03:06:21.614Z,37.55
2022-10-14T03:08:48.663Z,37.58
2022-10-14T03:11:15.709Z,40.42
2022-10-14T03:13:42.724Z,41.60
2022-10-14T03:16:12.433Z,38.67
2022-10-14T03:18:41.679Z,39.40
2022-10-14T03:21:08.731Z,40.53
2022-10-14T03:23:35.743Z,40.00
2022-10-14T03:26:02.756Z,40.13
2022-10-14T03:28:29.823Z,41.08
2022-10-14T03:30:56.967Z,41.63
2022-10-14T03:33:26.361Z,43.95
2022-10-14T03:35:53.843Z,43.80
2022-10-14T03:38:20.919Z,49.00
2022-10-14T03:40:47.968Z,49.97
2022-10-14T03:43:14.997Z,46.30
2022-10-14T03:45:42.083Z,49.20
2022-10-14T03:48:19.523Z,50.00
2022-10-14T03:50:47.654Z,47.80
2022-10-14T03:53:14.713Z,48.45
2022-10-14T03:55:41.770Z,47.53
2022-10-14T03:58:09.702Z,49.38
2022-10-14T04:00:36.793Z,47.45
2022-10-14T04:03:03.823Z,45.87
2022-10-14T04:05:33.726Z,49.08
2022-10-14T04:08:01.218Z,44.97
2022-10-14T04:10:28.256Z,49.40
2022-10-14T04:12:55.502Z,44.17
2022-10-14T04:15:22.947Z,46.97
2022-10-14T04:17:50.071Z,45.70
2022-10-14T04:20:18.738Z,47.10
2022-10-14T04:22:45.766Z,46.67
2022-10-14T04:25:12.861Z,48.17
2022-10-14T04:27:39.923Z,48.25
2022-10-14T04:30:07.380Z,48.03
2022-10-14T04:32:34.709Z,45.47
2022-10-14T04:35:02.008Z,48.08
2022-10-14T04:37:29.125Z,44.90
2022-10-14T04:39:59.163Z,45.88
2022-10-14T04:42:26.232Z,44.03
2022-10-14T04:44:53.246Z,44.78
2022-10-14T04:47:20.244Z,43.20
2022-10-14T04:49:47.247Z,45.83
2022-10-14T04:52:14.290Z,43.93
2022-10-14T04:54:41.280Z,38.67
2022-10-14T04:57:09.904Z,41.60
2022-10-14T04:59:36.990Z,41.15
2022-10-14T05:02:04.068Z,37.95
2022-10-14T05:04:31.166Z,40.70
2022-10-14T05:06:58.259Z,37.53
2022-10-14T05:09:25.355Z,40.70
2022-10-14T05:11:52.551Z,37.83
2022-10-14T05:14:19.596Z,36.72
2022-10-14T05:16:46.590Z,35.95
2022-10-14T05:19:13.611Z,36.35
2022-10-14T05:21:42.319Z,39.40
2022-10-14T05:24:12.137Z,36.58
2022-10-14T05:26:39.185Z,36.47
2022-10-14T05:29:06.232Z,35.40
2022-10-14T05:31:35.091Z,33.80
2022-10-14T05:34:02.153Z,33.20
2022-10-14T05:36:29.344Z,35.97
2022-10-14T05:38:59.183Z,32.35
2022-10-14T05:41:26.555Z,35.13
2022-10-14T05:43:53.753Z,30.20
2022-10-14T05:46:20.886Z,27.00
2022-10-14T05:48:47.901Z,28.70
2022-10-14T05:51:15.503Z,25.65
2022-10-14T05:53:46.232Z,25.33
2022-10-14T05:56:14.053Z,26.25
2022-10-14T05:58:41.353Z,25.15
2022-10-14T06:01:10.209Z,25.92
2022-10-14T06:03:37.226Z,24.92
2022-10-14T06:06:04.257Z,24.42
2022-10-14T06:08:31.292Z,23.02
2022-10-14T06:10:58.304Z,23.20
2022-10-14T06:13:28.120Z,24.63
2022-10-14T06:15:57.912Z,24.83
2022-10-14T06:18:24.928Z,23.65
2022-10-14T06:20:53.507Z,23.13
2022-10-14T06:23:20.628Z,23.40
2022-10-14T06:25:47.685Z,21.70
2022-10-14T06:28:14.736Z,22.10
2022-10-14T06:30:41.867Z,23.08
2022-10-14T06:33:08.944Z,21.00
2022-10-14T06:35:37.020Z,21.45
2022-10-14T06:38:04.013Z,22.15
2022-10-14T06:40:31.108Z,21.40
2022-10-14T06:42:59.768Z,21.88
2022-10-14T06:45:26.913Z,21.38
2022-10-14T06:47:53.903Z,20.75
2022-10-14T06:50:20.910Z,21.80
2022-10-14T06:52:48.106Z,20.98
2022-10-14T06:55:15.716Z,19.43
2022-10-14T06:57:43.783Z,20.98
2022-10-14T07:00:11.275Z,19.60
2022-10-14T07:02:38.776Z,19.77
2022-10-14T07:05:05.947Z,18.98
2022-10-14T07:07:33.381Z,18.10
2022-10-14T07:10:00.424Z,18.77
2022-10-14T07:12:27.790Z,17.05
2022-10-14T07:14:54.801Z,18.88
2022-10-14T07:17:22.067Z,19.98
2022-10-14T07:20:04.792Z,20.35
2022-10-14T07:22:35.096Z,19.05
2022-10-14T07:25:05.686Z,19.85
2022-10-14T07:27:32.844Z,19.05
2022-10-14T07:30:01.627Z,20.52
2022-10-14T07:32:28.751Z,20.52
2022-10-14T07:34:55.772Z,18.65
2022-10-14T07:37:23.410Z,19.80
2022-10-14T07:39:50.745Z,20.75
2022-10-14T07:42:17.810Z,18.90
2022-10-14T07:44:45.798Z,18.80
2022-10-14T07:47:13.092Z,21.80
2022-10-14T07:49:40.479Z,20.55
2022-10-14T07:52:07.509Z,18.55
2022-10-14T07:54:34.567Z,20.42
2022-10-14T07:57:01.550Z,19.43
2022-10-14T07:59:28.660Z,21.30
2022-10-14T08:01:56.687Z,21.50
2022-10-14T08:04:24.677Z,20.42
2022-10-14T08:06:52.119Z,19.85
2022-10-14T08:09:19.708Z,20.75
2022-10-14T08:11:47.158Z,18.20
2022-10-14T08:14:20.114Z,18.40
2022-10-14T08:16:47.318Z,19.17
2022-10-14T08:19:15.033Z,20.90
2022-10-14T08:21:43.135Z,19.05
2022-10-14T08:24:12.167Z,18.85
2022-10-14T08:26:40.966Z,18.35
2022-10-14T08:29:10.651Z,18.05
2022-10-14T08:31:38.133Z,16.45
2022-10-14T08:34:05.187Z,17.70
2022-10-14T08:36:32.263Z,17.45
2022-10-14T08:39:01.462Z,17.70
2022-10-14T08:41:34.674Z,17.95
2022-10-14T08:44:19.874Z,16.55
2022-10-14T08:46:51.988Z,18.15
2022-10-14T08:49:31.594Z,17.55
2022-10-14T08:52:03.723Z,17.33
2022-10-14T08:54:51.018Z,17.35
2022-10-14T08:57:22.259Z,16.50
2022-10-14T08:59:49.352Z,16.43
2022-10-14T09:02:34.957Z,16.45
2022-10-14T09:05:02.223Z,16.17
2022-10-14T09:07:29.825Z,19.33
2022-10-14T09:10:06.576Z,16.30
2022-10-14T09:12:35.582Z,15.07
2022-10-14T09:15:15.753Z,14.57
2022-10-14T09:20:39.233Z,15.68
2022-10-14T09:23:10.297Z,12.77
2022-10-14T09:25:38.031Z,13.52
2022-10-14T09:28:06.801Z,12.20
2022-10-14T09:30:36.500Z,12.95
2022-10-14T09:33:05.060Z,11.70
2022-10-14T09:35:41.348Z,13.13
2022-10-14T09:38:08.422Z,12.90
2022-10-14T09:40:36.999Z,10.73
2022-10-14T09:43:09.790Z,12.13
2022-10-14T09:45:55.823Z,9.68
2022-10-14T09:48:40.227Z,10.45
2022-10-14T09:51:19.559Z,9.30
2022-10-14T09:53:49.071Z,9.73
2022-10-14T09:56:18.925Z,10.40
2022-10-14T09:58:53.636Z,10.03
2022-10-14T10:01:21.870Z,10.27
2022-10-14T10:03:50.482Z,9.23
2022-10-14T10:06:19.290Z,7.93
2022-10-14T10:08:58.412Z,9.07
2022-10-14T10:11:28.571Z,9.18
2022-10-14T10:13:57.651Z,8.38
2022-10-14T10:16:26.010Z,8.67
2022-10-14T10:18:56.212Z,7.17
2022-10-14T10:21:27.227Z,7.97
2022-10-14T10:23:55.895Z,8.23
2022-10-14T10:26:28.287Z,7.85
2022-10-14T10:28:59.502Z,7.07
2022-10-14T10:31:26.690Z,7.05
2022-10-14T10:33:58.192Z,8.48
2022-10-14T10:36:33.986Z,8.48
2022-10-14T10:39:03.383Z,7.70
2022-10-14T10:41:53.258Z,8.80
2022-10-14T10:44:21.703Z,7.78
2022-10-14T10:46:57.699Z,7.30
2022-10-14T10:49:33.742Z,7.63
2022-10-14T10:52:08.697Z,7.22
2022-10-14T10:54:45.578Z,8.60
2022-10-14T10:57:32.227Z,7.03
2022-10-14T11:00:07.944Z,7.82
2022-10-14T11:02:57.705Z,8.93
2022-10-14T11:05:46.956Z,8.88
2022-10-14T11:08:58.904Z,10.17
2022-10-14T11:11:48.445Z,11.70
2022-10-14T11:14:35.378Z,9.48
2022-10-14T11:17:08.344Z,10.73
2022-10-14T11:20:02.110Z,10.63
2022-10-14T11:22:58.094Z,11.40
2022-10-14T11:25:34.390Z,11.35
2022-10-14T11:28:20.059Z,11.75
2022-10-14T11:30:56.338Z,12.80
2022-10-14T11:33:23.349Z,13.15
2022-10-14T11:36:02.524Z,12.00
2022-10-14T11:38:32.386Z,13.18
2022-10-14T11:41:02.456Z,14.68
2022-10-14T11:43:32.727Z,14.17
2022-10-14T11:46:08.439Z,12.80
2022-10-14T11:48:53.548Z,13.95
2022-10-14T11:51:35.591Z,14.05
2022-10-14T11:54:15.296Z,14.27
2022-10-14T11:56:42.381Z,12.98
2022-10-14T11:59:18.234Z,13.73
2022-10-14T12:01:46.781Z,13.32
2022-10-14T12:04:19.652Z,14.27
2022-10-14T12:06:51.796Z,13.32
2022-10-14T12:09:18.842Z,13.10
2022-10-14T12:11:51.619Z,12.48
2022-10-14T12:14:24.868Z,12.77
2022-10-14T12:16:52.139Z,12.10
2022-10-14T12:19:24.941Z,11.82
2022-10-14T12:21:59.089Z,12.27
2022-10-14T12:24:30.656Z,12.00
2022-10-14T12:26:59.207Z,12.18
2022-10-14T12:29:28.873Z,12.07
2022-10-14T12:32:21.226Z,11.57
2022-10-14T12:34:49.806Z,11.82
2022-10-14T12:37:29.190Z,11.90
2022-10-14T12:40:07.699Z,12.00
2022-10-14T12:42:36.542Z,12.55
2022-10-14T12:45:14.444Z,13.70
2022-10-14T12:47:42.415Z,12.60
2022-10-14T12:50:15.361Z,12.10
2022-10-14T12:52:45.801Z,12.07
2022-10-14T12:55:18.094Z,11.88
2022-10-14T12:57:52.968Z,12.45
2022-10-14T13:00:23.105Z,12.02
2022-10-14T13:02:51.888Z,12.63
2022-10-14T13:05:24.903Z,13.63
2022-10-14T13:08:11.046Z,14.20
2022-10-14T13:10:43.239Z,14.95
2022-10-14T13:13:31.667Z,14.80
2022-10-14T13:16:02.456Z,15.15
2022-10-14T13:18:29.503Z,16.05
2022-10-14T13:20:57.606Z,14.82
2022-10-14T13:23:46.445Z,16.48
2022-10-14T13:26:34.050Z,17.45
2022-10-14T13:29:20.226Z,17.65
2022-10-14T13:31:52.462Z,18.57
2022-10-14T13:34:27.782Z,17.60
2022-10-14T13:37:07.921Z,18.40
2022-10-14T13:39:35.361Z,19.17
2022-10-14T13:42:03.132Z,18.85
2022-10-14T13:44:30.332Z,19.70
2022-10-14T13:47:01.445Z,19.63
2022-10-14T13:49:33.991Z,19.50
2022-10-14T13:52:04.494Z,19.52
2022-10-14T13:54:32.193Z,19.70
2022-10-14T13:57:31.526Z,22.17
2022-10-14T14:02:43.462Z,21.07
2022-10-14T14:05:15.031Z,20.88
2022-10-14T14:10:31.549Z,22.47
2022-10-14T14:12:59.978Z,22.10
2022-10-14T14:15:28.145Z,20.90
2022-10-14T14:17:55.195Z,20.23
2022-10-14T14:20:23.769Z,21.60
2022-10-14T14:22:51.299Z,21.90
2022-10-14T14:25:34.056Z,22.00
2022-10-14T14:28:02.995Z,22.37
2022-10-14T14:30:31.268Z,21.15
2022-10-14T14:33:02.415Z,22.45
2022-10-14T14:35:31.677Z,22.13
2022-10-14T14:37:59.152Z,22.60
2022-10-14T14:40:27.496Z,20.48
2022-10-14T14:43:04.372Z,22.00
2022-10-14T14:45:32.592Z,21.23
2022-10-14T14:48:05.350Z,20.80
2022-10-14T14:50:34.605Z,20.52
2022-10-14T14:53:03.516Z,20.95
2022-10-14T14:55:56.811Z,21.93
2022-10-14T14:58:32.548Z,19.95
2022-10-14T15:00:59.807Z,20.02
2022-10-14T15:03:27.967Z,20.27
2022-10-14T15:06:02.955Z,21.10
2022-10-14T15:08:34.925Z,21.38
2022-10-14T15:11:02.556Z,21.13
2022-10-14T15:13:43.394Z,20.58
2022-10-14T15:16:32.319Z,20.75
2022-10-14T15:19:14.398Z,21.60
2022-10-14T15:21:41.462Z,20.83
2022-10-14T15:24:15.873Z,21.85
2022-10-14T15:26:42.870Z,20.13
2022-10-14T15:32:03.837Z,21.67
2022-10-14T15:34:33.327Z,23.03
2022-10-14T15:37:00.348Z,21.73
2022-10-14T15:39:27.449Z,20.85
2022-10-14T15:41:54.512Z,21.75
2022-10-14T15:44:22.734Z,22.20
2022-10-14T15:47:09.220Z,21.58
2022-10-14T15:49:50.681Z,20.65
2022-10-14T15:52:19.446Z,19.43
2022-10-14T15:54:49.206Z,19.77
2022-10-14T15:57:18.217Z,19.58
2022-10-14T15:59:45.272Z,19.40
2022-10-14T16:02:15.291Z,19.10
2022-10-14T16:05:00.650Z,20.25
2022-10-14T16:07:29.348Z,18.53
2022-10-14T16:09:59.372Z,19.13
2022-10-14T16:12:29.196Z,19.20
2022-10-14T16:15:29.568Z,20.15
2022-10-14T16:21:15.850Z,22.08
2022-10-14T16:23:45.844Z,19.38
2022-10-14T16:26:17.071Z,22.17
2022-10-14T16:28:44.302Z,21.60
2022-10-14T16:31:14.700Z,19.60
2022-10-14T16:33:44.844Z,21.23
2022-10-14T16:36:15.070Z,25.35
2022-10-14T16:38:42.416Z,22.42
2022-10-14T16:41:10.938Z,23.45
2022-10-14T16:43:38.302Z,23.60
2022-10-14T16:46:06.386Z,23.13
2022-10-14T16:48:35.404Z,22.92
2022-10-14T16:51:02.723Z,25.30
2022-10-14T16:53:42.086Z,23.23
2022-10-14T16:56:31.043Z,25.30
2022-10-14T16:59:00.755Z,24.92
2022-10-14T17:01:28.237Z,25.45
2022-10-14T17:04:06.458Z,25.20
2022-10-14T17:06:33.547Z,25.92
2022-10-14T17:09:03.391Z,26.40
2022-10-14T17:11:32.079Z,24.95
2022-10-14T17:14:02.423Z,25.27
2022-10-14T17:16:29.785Z,26.60
2022-10-14T17:18:57.413Z,25.90
2022-10-14T17:21:29.343Z,28.00
2022-10-14T17:24:01.463Z,28.00
2022-10-14T17:26:29.493Z,25.50
2022-10-14T17:28:57.077Z,28.17
2022-10-14T17:31:27.838Z,25.77
2022-10-14T17:33:55.388Z,26.30
2022-10-14T17:36:24.076Z,25.10
2022-10-14T17:38:52.464Z,24.23
2022-10-14T17:41:20.057Z,22.88
2022-10-14T17:43:49.556Z,23.88
2022-10-14T17:46:19.036Z,24.27
2022-10-14T17:48:49.083Z,23.98
2022-10-14T17:51:16.106Z,23.35
2022-10-14T17:53:43.333Z,22.77
2022-10-14T17:56:11.713Z,22.00
2022-10-14T17:58:39.135Z,22.02
2022-10-14T18:01:13.629Z,25.08
2022-10-14T18:03:41.848Z,21.13
2022-10-14T18:06:10.025Z,24.23
2022-10-14T18:08:37.081Z,23.60
2022-10-14T18:11:10.005Z,23.15
2022-10-14T18:16:12.433Z,21.65
2022-10-14T18:18:39.985Z,24.73
2022-10-14T18:21:07.513Z,25.58
2022-10-14T18:23:35.859Z,28.52
2022-10-14T18:26:15.867Z,27.00
2022-10-14T18:32:18.235Z,36.92
2022-10-14T18:34:45.567Z,34.50
2022-10-14T18:37:12.582Z,34.60
2022-10-14T18:39:39.662Z,34.03
2022-10-14T18:42:06.715Z,32.92
2022-10-14T18:44:33.747Z,33.35
2022-10-14T18:47:00.771Z,34.77
2022-10-14T18:49:29.311Z,32.80
2022-10-14T18:51:59.464Z,29.90
2022-10-14T18:54:26.647Z,30.65
2022-10-14T18:56:54.817Z,30.20
2022-10-14T18:59:23.265Z,30.35
2022-10-14T19:01:53.250Z,29.15
2022-10-14T19:04:21.869Z,28.83
2022-10-14T19:06:49.747Z,28.05
2022-10-14T19:09:20.394Z,29.58
2022-10-14T19:11:49.711Z,29.35
2022-10-14T19:14:17.197Z,29.25
2022-10-14T19:16:47.167Z,29.67
2022-10-14T19:19:16.771Z,31.48
2022-10-14T19:21:44.858Z,31.02
2022-10-14T19:24:12.751Z,32.90
2022-10-14T19:26:45.752Z,34.75
2022-10-14T19:29:21.913Z,34.55
2022-10-14T19:31:50.690Z,35.30
2022-10-14T19:34:19.689Z,34.50
2022-10-14T19:36:46.750Z,34.80
2022-10-14T19:39:15.171Z,34.90
2022-10-14T19:41:51.421Z,33.78
2022-10-14T19:44:18.446Z,34.00
2022-10-14T19:46:45.716Z,33.08
2022-10-14T19:49:14.447Z,33.38
2022-10-14T19:51:41.549Z,31.70
2022-10-14T19:54:08.739Z,30.33
2022-10-14T19:56:40.226Z,31.52
2022-10-14T19:59:07.598Z,31.38
2022-10-14T20:01:34.714Z,31.00
2022-10-14T20:04:02.470Z,29.77
2022-10-14T20:06:32.658Z,29.27
2022-10-14T20:09:00.528Z,29.27
2022-10-14T20:11:28.267Z,30.60
2022-10-14T20:13:57.636Z,30.98
2022-10-14T20:16:25.013Z,31.23
2022-10-14T20:18:52.310Z,31.98
2022-10-14T20:21:19.433Z,32.25
2022-10-14T20:23:46.532Z,34.97
2022-10-14T20:26:17.929Z,34.53
2022-10-14T20:28:47.377Z,34.35
2022-10-14T20:31:15.689Z,33.20
2022-10-14T20:33:45.624Z,35.45
2022-10-14T20:36:19.572Z,34.60
2022-10-14T20:38:47.297Z,35.78
2022-10-14T20:41:19.100Z,36.20
2022-10-14T20:43:48.789Z,36.63
2022-10-14T20:46:16.356Z,32.08
2022-10-14T20:48:43.650Z,33.03
2022-10-14T20:51:15.130Z,35.30
2022-10-14T20:53:42.290Z,33.23
2022-10-14T20:56:12.475Z,29.88
2022-10-14T20:58:43.073Z,31.00
2022-10-14T21:01:10.125Z,31.35
2022-10-14T21:03:37.281Z,29.95
2022-10-14T21:06:20.207Z,28.73
2022-10-14T21:09:01.649Z,32.90
2022-10-14T21:11:30.432Z,32.92
2022-10-14T21:14:00.685Z,33.10
2022-10-14T21:16:33.999Z,32.53
2022-10-14T21:19:11.528Z,33.20
2022-10-14T21:21:49.912Z,36.03
2022-10-14T21:24:22.217Z,35.20
2022-10-14T21:26:52.333Z,35.17
2022-10-14T21:29:19.946Z,34.35
2022-10-14T21:31:47.111Z,32.97
2022-10-14T21:34:14.490Z,34.90
2022-10-14T21:36:41.593Z,33.08
2022-10-14T21:39:10.041Z,33.38
2022-10-14T21:41:37.462Z,33.08
2022-10-14T21:44:05.146Z,35.38
2022-10-14T21:46:32.253Z,33.67
2022-10-14T21:48:59.974Z,33.67
2022-10-14T21:51:27.893Z,31.85
2022-10-14T21:53:54.936Z,33.08
2022-10-14T21:56:22.664Z,34.78
2022-10-14T21:58:49.725Z,33.50
2022-10-14T22:01:18.164Z,33.13
2022-10-14T22:03:45.391Z,31.95
2022-10-14T22:06:14.436Z,35.10
2022-10-14T22:08:42.735Z,34.50
2022-10-14T22:11:23.603Z,36.22
2022-10-14T22:13:53.583Z,33.55
2022-10-14T22:16:20.887Z,34.85
2022-10-14T22:18:50.431Z,34.08
2022-10-14T22:21:18.399Z,34.65
2022-10-14T22:23:46.215Z,33.45
2022-10-14T22:26:14.095Z,36.75
2022-10-14T22:28:41.589Z,35.80
2022-10-14T22:31:15.072Z,36.63
2022-10-14T22:33:42.460Z,38.35
2022-10-14T22:36:11.312Z,37.45
2022-10-14T22:38:39.616Z,38.50
2022-10-14T22:41:07.300Z,37.88
2022-10-14T22:43:35.737Z,38.05
2022-10-14T22:46:03.943Z,39.55
2022-10-14T22:48:34.827Z,39.73
2022-10-14T22:51:06.185Z,43.25
2022-10-14T22:53:36.894Z,44.50
2022-10-14T22:56:04.312Z,44.20
2022-10-14T22:58:31.341Z,41.53
2022-10-14T23:01:06.177Z,42.72
2022-10-14T23:03:34.576Z,42.53
2022-10-14T23:06:03.404Z,40.87
2022-10-14T23:08:39.647Z,41.22
2022-10-14T23:11:07.046Z,41.15
2022-10-14T23:13:34.112Z,40.42
2022-10-14T23:16:02.245Z,40.43
2022-10-14T23:18:30.181Z,40.30
2022-10-14T23:20:57.211Z,38.95
2022-10-14T23:23:29.699Z,35.40
2022-10-14T23:25:56.814Z,37.67
2022-10-14T23:28:23.969Z,40.10
2022-10-14T23:30:51.004Z,37.30
2022-10-14T23:33:18.096Z,38.33
2022-10-14T23:35:45.104Z,41.35
2022-10-14T23:38:13.344Z,41.88
2022-10-14T23:40:40.407Z,43.55
2022-10-14T23:43:07.430Z,42.97
2022-10-14T23:45:34.511Z,45.67
2022-10-14T23:48:01.565Z,42.55
2022-10-14T23:50:28.576Z,42.25
2022-10-14T23:52:55.597Z,40.20
2022-10-14T23:55:22.627Z,41.78
2022-10-14T23:57:49.637Z,40.63
